Time;durP1;ratioP1;P1;durP2;ratioP2;P2;SDS_P1;SDS_P2;PMS_P1;PMS_P2;Temp;Humidity;BMP_temperature;BMP_pressure;BME280_temperature;BME280_humidity;BME280_pressure;Samples;Min_cycle;Max_cycle;Signal;HPM_P1;HPM_P2
2023/03/03 00:01:33;;;;;;;33.07;27.83;;;4.70;73.00;;;;;;5105500;28;20726;-84
2023/03/03 00:03:59;;;;;;;35.53;28.87;;;4.70;72.60;;;;;;5104056;28;20171;-86
2023/03/03 00:06:25;;;;;;;33.87;28.30;;;4.80;72.50;;;;;;5100854;28;20190;-85
2023/03/03 00:08:51;;;;;;;30.90;27.57;;;4.70;72.00;;;;;;5099085;28;20198;-85
2023/03/03 00:11:17;;;;;;;34.53;27.67;;;4.60;72.00;;;;;;5098049;28;20182;-84
2023/03/03 00:14:01;;;;;;;40.70;32.60;;;4.60;72.30;;;;;;5100290;28;20179;-84
2023/03/03 00:16:29;;;;;;;44.93;35.77;;;4.70;72.10;;;;;;5100659;28;20175;-83
2023/03/03 00:18:55;;;;;;;49.13;41.70;;;4.70;72.20;;;;;;5085478;28;20183;-84
2023/03/03 00:21:39;;;;;;;40.73;36.10;;;4.60;72.20;;;;;;5080291;28;20189;-83
2023/03/03 00:24:27;;;;;;;48.57;39.63;;;4.60;72.80;;;;;;5061702;28;20198;-85
2023/03/03 00:26:55;;;;;;;39.47;35.13;;;4.60;72.60;;;;;;5062692;28;20184;-83
2023/03/03 00:29:32;;;;;;;42.27;33.10;;;4.40;73.30;;;;;;5069160;28;20210;-84
2023/03/03 00:32:07;;;;;;;40.90;33.60;;;4.40;74.00;;;;;;5093250;28;20203;-84
2023/03/03 00:34:34;;;;;;;40.23;33.27;;;4.40;73.40;;;;;;5085618;28;20183;-84
2023/03/03 00:36:59;;;;;;;38.70;30.73;;;4.40;73.70;;;;;;5085880;28;20180;-84
2023/03/03 00:39:37;;;;;;;37.40;31.30;;;4.30;73.20;;;;;;5083436;28;20183;-84
2023/03/03 00:42:14;;;;;;;36.73;30.37;;;4.30;73.40;;;;;;5083379;28;20223;-85
2023/03/03 00:44:40;;;;;;;36.33;31.30;;;4.40;73.10;;;;;;5082544;28;20167;-84
2023/03/03 00:47:34;;;;;;;37.17;29.60;;;4.40;72.90;;;;;;5083201;28;20175;-83
2023/03/03 00:50:05;;;;;;;37.00;27.90;;;4.30;72.90;;;;;;5091857;28;20676;-83
2023/03/03 00:52:36;;;;;;;39.80;28.27;;;4.30;72.80;;;;;;5103303;28;20658;-83
2023/03/03 00:55:04;;;;;;;34.10;29.13;;;4.20;73.20;;;;;;5102965;28;20627;-86
2023/03/03 00:57:30;;;;;;;37.03;29.03;;;4.20;73.40;;;;;;5085167;28;20266;-85
2023/03/03 00:59:55;;;;;;;35.77;30.17;;;4.20;73.60;;;;;;5100894;28;20230;-85
2023/03/03 01:02:21;;;;;;;33.30;27.17;;;4.10;73.30;;;;;;5101190;28;20190;-83
2023/03/03 01:04:52;;;;;;;31.43;28.13;;;4.20;73.60;;;;;;5100588;28;20168;-85
2023/03/03 01:07:18;;;;;;;30.27;24.40;;;4.10;73.50;;;;;;5100717;28;20201;-86
2023/03/03 01:09:44;;;;;;;32.00;25.30;;;4.10;73.70;;;;;;5100597;28;20178;-84
2023/03/03 01:12:10;;;;;;;32.07;27.10;;;4.20;74.00;;;;;;5102789;28;20191;-85
2023/03/03 01:14:37;;;;;;;33.27;28.37;;;4.20;73.60;;;;;;5091181;28;20182;-86
2023/03/03 01:17:03;;;;;;;30.60;26.13;;;4.00;73.70;;;;;;5081518;28;20573;-85
2023/03/03 01:19:28;;;;;;;34.70;28.57;;;4.00;74.10;;;;;;5085025;28;20191;-85
2023/03/03 01:21:54;;;;;;;33.40;26.03;;;3.90;74.20;;;;;;5088295;28;20292;-85
2023/03/03 01:24:20;;;;;;;33.80;27.47;;;3.80;75.10;;;;;;5082357;28;20194;-83
2023/03/03 01:26:46;;;;;;;30.80;27.50;;;3.90;74.50;;;;;;5082587;28;20194;-84
2023/03/03 01:29:12;;;;;;;30.63;24.33;;;4.00;74.00;;;;;;5089684;28;20206;-85
2023/03/03 01:31:37;;;;;;;32.10;26.30;;;4.00;74.50;;;;;;5102659;28;20194;-84
2023/03/03 01:34:03;;;;;;;32.47;26.60;;;3.90;74.20;;;;;;5102038;28;20163;-84
2023/03/03 01:36:29;;;;;;;30.43;25.97;;;3.80;74.00;;;;;;5101994;28;20170;-86
2023/03/03 01:38:55;;;;;;;29.70;24.83;;;3.80;74.90;;;;;;5097810;28;20211;-85
2023/03/03 01:41:21;;;;;;;30.67;26.00;;;3.80;74.50;;;;;;5083204;28;20217;-85
2023/03/03 01:43:48;;;;;;;31.43;27.33;;;3.70;74.90;;;;;;5092298;28;20191;-85
2023/03/03 01:46:33;;;;;;;33.27;26.37;;;3.70;73.90;;;;;;5086308;28;20238;-83
2023/03/03 01:49:06;;;;;;;31.90;24.90;;;3.80;74.20;;;;;;5064948;28;20204;-82
2023/03/03 01:51:37;;;;;;;33.90;26.70;;;3.70;73.80;;;;;;5080759;28;20179;-85
2023/03/03 01:54:09;;;;;;;31.10;27.13;;;3.50;74.20;;;;;;5093034;28;20183;-86
2023/03/03 01:56:34;;;;;;;33.97;26.30;;;3.40;75.20;;;;;;5100048;28;20155;-84
2023/03/03 01:59:10;;;;;;;31.93;26.33;;;3.50;75.50;;;;;;5099921;28;20210;-85
2023/03/03 02:01:36;;;;;;;31.13;26.63;;;3.60;74.90;;;;;;5100548;28;20163;-85
2023/03/03 02:04:02;;;;;;;35.70;27.97;;;3.60;75.30;;;;;;5099425;28;20282;-85
2023/03/03 02:06:40;;;;;;;30.00;25.30;;;3.50;75.50;;;;;;5077572;28;20207;-86
2023/03/03 02:09:45;;;;;;;32.30;25.63;;;3.50;75.40;;;;;;5088891;28;20592;-85
2023/03/03 02:12:14;;;;;;;33.63;25.90;;;3.30;75.50;;;;;;5052333;28;20234;-84
2023/03/03 02:14:39;;;;;;;34.23;27.13;;;3.40;75.90;;;;;;5078207;28;20285;-85
2023/03/03 02:17:05;;;;;;;33.37;26.57;;;3.30;77.00;;;;;;5043644;28;20184;-85
2023/03/03 02:19:31;;;;;;;29.73;24.77;;;3.30;76.50;;;;;;5060338;28;20191;-83
2023/03/03 02:21:58;;;;;;;31.10;25.87;;;3.30;76.40;;;;;;5053568;28;20239;-84
2023/03/03 02:24:43;;;;;;;31.20;26.33;;;3.20;76.90;;;;;;5071275;28;20209;-84
2023/03/03 02:27:09;;;;;;;29.33;25.00;;;3.20;76.30;;;;;;5100206;28;20159;-84
2023/03/03 02:29:35;;;;;;;34.40;25.43;;;3.00;76.30;;;;;;5079827;28;20216;-84
2023/03/03 02:32:01;;;;;;;33.03;27.37;;;2.80;77.90;;;;;;5078964;28;20221;-83
2023/03/03 02:34:26;;;;;;;31.63;26.13;;;2.80;78.60;;;;;;5095297;28;20238;-85
2023/03/03 02:36:52;;;;;;;30.70;24.97;;;2.90;78.00;;;;;;5116140;28;20179;-86
2023/03/03 02:39:25;;;;;;;31.53;25.97;;;3.00;78.40;;;;;;5117588;28;20188;-86
2023/03/03 02:42:15;;;;;;;30.50;24.43;;;2.70;77.50;;;;;;5115614;28;20198;-83
2023/03/03 02:44:41;;;;;;;33.97;26.83;;;2.70;79.00;;;;;;5100636;28;20224;-84
2023/03/03 02:47:07;;;;;;;27.03;24.17;;;2.70;79.30;;;;;;5100004;28;20167;-84
2023/03/03 02:49:35;;;;;;;28.83;23.57;;;2.80;79.30;;;;;;5099478;28;20228;-85
2023/03/03 02:52:04;;;;;;;33.00;24.57;;;2.90;79.10;;;;;;5100743;28;20226;-83
2023/03/03 02:54:30;;;;;;;29.23;24.57;;;2.80;78.20;;;;;;5083972;28;20188;-84
2023/03/03 02:56:57;;;;;;;30.30;24.80;;;2.80;78.00;;;;;;5083243;28;20179;-85
2023/03/03 02:59:23;;;;;;;30.13;25.13;;;2.90;77.90;;;;;;5083142;28;20174;-85
2023/03/03 03:01:49;;;;;;;31.40;25.50;;;3.00;77.80;;;;;;5082570;28;20231;-82
2023/03/03 03:04:20;;;;;;;29.23;24.83;;;3.00;76.60;;;;;;5099909;28;20236;-85
2023/03/03 03:06:46;;;;;;;29.23;24.70;;;2.90;77.00;;;;;;5103491;28;20209;-83
2023/03/03 03:09:13;;;;;;;27.47;24.17;;;2.80;77.50;;;;;;5088471;28;20199;-84
2023/03/03 03:11:39;;;;;;;33.53;26.73;;;2.80;77.00;;;;;;5091920;28;20198;-84
2023/03/03 03:14:05;;;;;;;33.40;26.10;;;2.90;76.80;;;;;;5106391;28;20187;-85
2023/03/03 03:16:32;;;;;;;28.50;24.37;;;2.90;76.00;;;;;;5115556;28;20175;-86
2023/03/03 03:18:58;;;;;;;29.47;24.97;;;2.90;76.80;;;;;;5109984;28;20205;-84
2023/03/03 03:21:24;;;;;;;28.77;24.27;;;2.90;76.30;;;;;;5075345;28;20191;-85
2023/03/03 03:23:50;;;;;;;28.90;24.03;;;2.80;76.10;;;;;;5093182;28;20265;-84
2023/03/03 03:26:15;;;;;;;28.77;24.27;;;2.70;76.20;;;;;;5105177;28;20182;-85
2023/03/03 03:28:41;;;;;;;27.43;24.30;;;2.70;76.50;;;;;;5074625;28;20203;-84
2023/03/03 03:31:08;;;;;;;29.50;24.63;;;2.70;77.30;;;;;;5085038;28;20190;-83
2023/03/03 03:33:34;;;;;;;27.63;24.00;;;2.70;76.60;;;;;;5089069;28;20238;-84
2023/03/03 03:36:00;;;;;;;29.13;23.70;;;2.80;76.10;;;;;;5103434;28;20191;-85
2023/03/03 03:38:26;;;;;;;29.20;23.60;;;2.70;76.30;;;;;;5104045;28;20179;-84
2023/03/03 03:40:53;;;;;;;32.50;23.60;;;2.80;76.20;;;;;;5103205;28;20250;-85
2023/03/03 03:43:18;;;;;;;30.47;24.50;;;2.80;76.80;;;;;;5101633;28;20207;-85
2023/03/03 03:45:44;;;;;;;30.27;25.27;;;2.80;76.80;;;;;;5082639;28;20248;-83
2023/03/03 03:48:11;;;;;;;29.97;25.27;;;2.70;76.50;;;;;;5082942;28;20199;-85
2023/03/03 03:50:37;;;;;;;28.57;24.23;;;2.70;76.60;;;;;;5083018;28;20740;-82
2023/03/03 03:53:03;;;;;;;27.83;24.47;;;2.60;76.70;;;;;;5082297;28;20203;-84
2023/03/03 03:55:29;;;;;;;27.53;23.70;;;2.60;76.80;;;;;;5081540;28;20259;-84
2023/03/03 03:57:55;;;;;;;30.07;24.57;;;2.70;77.70;;;;;;5082059;28;20223;-85
2023/03/03 04:00:21;;;;;;;28.70;22.90;;;2.70;77.50;;;;;;5082513;28;20168;-87
2023/03/03 04:02:47;;;;;;;31.20;24.63;;;2.70;77.20;;;;;;5083499;28;20211;-84
2023/03/03 04:05:13;;;;;;;29.60;25.27;;;2.70;77.10;;;;;;5084695;28;20192;-85
2023/03/03 04:07:39;;;;;;;30.57;23.80;;;2.70;78.10;;;;;;5071483;28;20208;-84
2023/03/03 04:10:05;;;;;;;29.97;24.43;;;2.80;77.50;;;;;;5063566;28;20185;-85
2023/03/03 04:12:37;;;;;;;30.17;24.33;;;2.60;75.70;;;;;;5062296;28;20200;-84
2023/03/03 04:15:05;;;;;;;31.87;25.67;;;2.50;76.00;;;;;;5079771;28;20171;-83
2023/03/03 04:17:30;;;;;;;33.70;25.43;;;2.30;77.60;;;;;;5082757;28;20172;-85
2023/03/03 04:19:56;;;;;;;29.67;25.83;;;2.30;79.10;;;;;;5083391;28;20455;-86
2023/03/03 04:22:21;;;;;;;32.37;25.90;;;2.30;79.70;;;;;;5061416;28;20202;-84
2023/03/03 04:24:47;;;;;;;34.57;26.80;;;2.40;80.20;;;;;;5077765;28;20191;-85
2023/03/03 04:27:14;;;;;;;30.00;24.30;;;2.50;79.60;;;;;;5082632;28;20175;-84
2023/03/03 04:29:40;;;;;;;28.90;23.87;;;2.40;78.90;;;;;;5082722;28;20210;-84
2023/03/03 04:32:06;;;;;;;30.47;23.23;;;2.40;77.60;;;;;;5082695;28;20203;-84
2023/03/03 04:34:32;;;;;;;33.03;25.43;;;2.40;77.50;;;;;;5081536;28;20270;-83
2023/03/03 04:36:57;;;;;;;29.87;25.00;;;2.40;76.80;;;;;;5082962;28;20184;-84
2023/03/03 04:39:23;;;;;;;31.63;24.20;;;2.40;76.90;;;;;;5083618;28;20199;-84
2023/03/03 04:41:49;;;;;;;28.83;24.47;;;2.30;76.20;;;;;;5081453;28;20207;-84
2023/03/03 04:44:15;;;;;;;30.33;24.70;;;2.20;77.00;;;;;;5090446;28;20787;-85
2023/03/03 04:46:40;;;;;;;32.57;24.93;;;2.20;78.10;;;;;;5101558;28;20198;-84
2023/03/03 04:49:07;;;;;;;33.03;26.63;;;2.30;77.50;;;;;;5100344;28;20195;-84
2023/03/03 04:51:33;;;;;;;31.07;25.53;;;2.20;76.00;;;;;;5099219;28;20178;-85
2023/03/03 04:53:59;;;;;;;32.53;24.57;;;1.90;76.30;;;;;;5092473;28;20175;-84
2023/03/03 04:56:25;;;;;;;29.97;22.60;;;1.60;78.90;;;;;;5081097;28;20209;-84
2023/03/03 04:58:51;;;;;;;33.13;25.87;;;1.60;80.80;;;;;;5081942;28;20182;-83
2023/03/03 05:01:18;;;;;;;30.87;25.37;;;1.80;80.50;;;;;;5078907;28;20245;-85
2023/03/03 05:03:44;;;;;;;29.23;24.53;;;1.90;80.60;;;;;;5084446;28;20199;-83
2023/03/03 05:06:10;;;;;;;30.63;25.73;;;1.90;79.50;;;;;;5085852;28;20230;-85
2023/03/03 05:08:36;;;;;;;25.90;21.97;;;1.90;78.30;;;;;;5082252;28;20234;-83
2023/03/03 05:11:02;;;;;;;29.23;24.20;;;1.80;79.80;;;;;;5081702;28;20171;-84
2023/03/03 05:13:28;;;;;;;30.90;24.70;;;2.00;79.70;;;;;;5081751;28;20202;-84
2023/03/03 05:15:55;;;;;;;32.23;25.93;;;2.10;80.00;;;;;;5100738;28;20187;-82
2023/03/03 05:18:25;;;;;;;31.77;24.67;;;2.10;79.90;;;;;;5101282;28;20190;-85
2023/03/03 05:20:51;;;;;;;34.57;26.40;;;2.00;80.10;;;;;;5076817;28;20693;-84
2023/03/03 05:23:17;;;;;;;33.27;25.93;;;1.90;80.90;;;;;;5082134;28;20200;-85
2023/03/03 05:25:43;;;;;;;31.70;26.20;;;1.90;81.10;;;;;;5101440;28;20194;-84
2023/03/03 05:28:10;;;;;;;38.67;29.10;;;1.90;81.10;;;;;;5094824;28;20195;-86
2023/03/03 05:30:36;;;;;;;30.27;24.60;;;1.80;81.50;;;;;;5082849;28;20176;-84
2023/03/03 05:33:03;;;;;;;33.20;24.97;;;1.70;83.10;;;;;;5081612;28;20218;-85
2023/03/03 05:35:28;;;;;;;28.03;22.43;;;1.60;81.70;;;;;;5098753;28;20190;-84
2023/03/03 05:37:54;;;;;;;30.87;24.30;;;1.60;82.40;;;;;;5081400;28;20187;-84
2023/03/03 05:40:20;;;;;;;28.17;24.07;;;1.70;81.80;;;;;;5081484;28;20175;-85
2023/03/03 05:42:46;;;;;;;31.37;25.50;;;1.70;81.40;;;;;;5099296;28;20199;-88
2023/03/03 05:45:12;;;;;;;32.17;26.63;;;1.60;82.00;;;;;;5082629;28;20179;-84
2023/03/03 05:47:38;;;;;;;33.77;26.37;;;1.70;83.40;;;;;;5078144;28;20184;-84
2023/03/03 05:50:04;;;;;;;33.27;24.43;;;1.50;82.20;;;;;;5078016;28;20241;-85
2023/03/03 05:52:30;;;;;;;30.93;25.10;;;1.60;83.30;;;;;;5079530;28;20203;-80
2023/03/03 05:54:55;;;;;;;32.80;24.83;;;1.60;82.30;;;;;;5079051;28;20186;-85
2023/03/03 05:57:21;;;;;;;29.13;24.97;;;1.60;82.60;;;;;;5080355;28;20218;-82
2023/03/03 05:59:47;;;;;;;33.20;25.80;;;1.80;82.30;;;;;;5080464;28;20183;-84
2023/03/03 06:02:12;;;;;;;29.60;23.87;;;1.70;81.10;;;;;;5081441;28;20220;-85
2023/03/03 06:04:38;;;;;;;31.37;24.37;;;1.70;82.90;;;;;;5091233;28;20183;-83
2023/03/03 06:07:04;;;;;;;30.47;24.20;;;1.80;82.20;;;;;;5101399;28;20201;-83
2023/03/03 06:09:32;;;;;;;33.13;27.00;;;1.80;82.90;;;;;;5097694;28;20214;-83
2023/03/03 06:11:57;;;;;;;35.03;25.00;;;1.90;82.80;;;;;;5081949;28;20192;-83
2023/03/03 06:14:23;;;;;;;31.60;22.70;;;2.00;82.00;;;;;;5106263;28;20191;-84
2023/03/03 06:16:49;;;;;;;30.83;25.20;;;2.10;82.70;;;;;;5104648;28;20190;-86
2023/03/03 06:19:14;;;;;;;30.17;24.57;;;2.10;82.40;;;;;;5101984;28;20189;-84
2023/03/03 06:21:40;;;;;;;31.63;24.83;;;2.10;82.70;;;;;;5079425;28;20207;-84
2023/03/03 06:24:07;;;;;;;31.07;23.67;;;2.10;82.80;;;;;;5078528;28;20186;-84
2023/03/03 06:26:33;;;;;;;31.87;24.77;;;2.20;82.30;;;;;;5078717;28;20184;-86
2023/03/03 06:28:58;;;;;;;32.87;23.43;;;2.10;82.60;;;;;;5078101;28;20203;-85
2023/03/03 06:31:25;;;;;;;29.67;23.73;;;2.10;83.80;;;;;;5082418;28;20168;-83
2023/03/03 06:33:50;;;;;;;31.67;25.07;;;2.10;83.50;;;;;;5094482;28;20354;-83
2023/03/03 06:36:17;;;;;;;29.53;24.33;;;2.10;83.40;;;;;;5080163;28;20190;-86
2023/03/03 06:38:43;;;;;;;30.00;23.97;;;2.20;83.40;;;;;;5079039;28;20546;-85
2023/03/03 06:41:09;;;;;;;33.40;27.90;;;2.20;83.70;;;;;;5079296;28;20187;-86
2023/03/03 06:43:35;;;;;;;29.37;23.97;;;2.20;84.20;;;;;;5077817;28;20203;-84
2023/03/03 06:46:02;;;;;;;31.83;24.83;;;2.10;85.20;;;;;;5077828;28;20188;-83
2023/03/03 06:48:29;;;;;;;34.60;25.80;;;2.20;85.50;;;;;;5058964;28;20231;-86
2023/03/03 06:50:55;;;;;;;41.67;26.17;;;2.30;85.60;;;;;;5074171;28;20262;-86
2023/03/03 06:53:21;;;;;;;38.17;25.53;;;2.30;85.90;;;;;;5074935;28;20639;-87
2023/03/03 06:55:46;;;;;;;35.50;24.93;;;2.40;85.70;;;;;;5074766;28;20200;-83
2023/03/03 06:58:20;;;;;;;31.57;23.93;;;2.30;86.30;;;;;;5077180;28;20174;-86
2023/03/03 07:01:00;;;;;;;32.87;24.97;;;2.00;89.10;;;;;;5076530;28;20353;-83
2023/03/03 07:03:31;;;;;;;29.27;23.10;;;2.10;89.40;;;;;;5089957;28;20199;-88
2023/03/03 07:05:57;;;;;;;30.27;24.30;;;2.10;89.80;;;;;;5095547;28;20176;-86
2023/03/03 07:08:24;;;;;;;29.63;22.57;;;2.20;89.80;;;;;;5102564;28;20263;-85
2023/03/03 07:10:51;;;;;;;29.10;22.97;;;2.20;91.40;;;;;;5094007;28;20377;-84
2023/03/03 07:13:21;;;;;;;29.03;22.17;;;2.30;90.70;;;;;;5082933;28;20250;-85
2023/03/03 07:15:49;;;;;;;25.30;22.10;;;2.40;90.90;;;;;;5084439;28;20186;-83
2023/03/03 07:18:45;;;;;;;29.97;23.37;;;2.50;90.30;;;;;;5081603;28;20188;-84
2023/03/03 07:21:29;;;;;;;29.57;22.83;;;2.60;88.80;;;;;;5062608;28;20188;-85
2023/03/03 07:23:56;;;;;;;30.10;22.10;;;2.80;88.30;;;;;;5087762;28;20182;-86
2023/03/03 07:26:32;;;;;;;27.13;23.17;;;2.80;86.00;;;;;;5077183;28;20191;-85
2023/03/03 07:29:00;;;;;;;40.30;25.63;;;2.90;85.90;;;;;;5079958;28;20191;-84
2023/03/03 07:31:26;;;;;;;36.43;24.80;;;2.90;84.20;;;;;;5078258;28;20179;-84
2023/03/03 07:33:53;;;;;;;32.23;22.77;;;2.80;84.30;;;;;;5077197;28;20691;-85
2023/03/03 07:36:36;;;;;;;33.63;27.03;;;2.80;86.70;;;;;;5078058;28;20175;-84
2023/03/03 07:39:24;;;;;;;41.27;29.17;;;2.80;86.10;;;;;;5077573;28;20183;-86
2023/03/03 07:41:50;;;;;;;30.37;23.50;;;2.80;84.70;;;;;;5079372;28;20347;-88
2023/03/03 07:44:35;;;;;;;30.17;23.03;;;2.80;85.20;;;;;;5079764;28;20172;-85
2023/03/03 07:47:19;;;;;;;30.63;23.47;;;2.80;86.10;;;;;;5089976;28;20175;-86
2023/03/03 07:49:46;;;;;;;30.93;23.03;;;2.80;85.80;;;;;;5082286;28;20210;-85
2023/03/03 07:52:24;;;;;;;33.17;24.90;;;2.80;86.20;;;;;;5084121;28;20199;-86
2023/03/03 07:54:51;;;;;;;24.97;19.43;;;2.80;85.90;;;;;;5084595;28;20239;-85
2023/03/03 07:57:36;;;;;;;24.33;20.97;;;2.70;84.50;;;;;;5085079;28;20179;-85
2023/03/03 08:00:01;;;;;;;27.03;21.80;;;2.70;84.60;;;;;;5088652;28;20191;-85
2023/03/03 08:02:51;;;;;;;26.37;21.27;;;2.70;83.80;;;;;;5085322;28;20376;-85
2023/03/03 08:05:26;;;;;;;23.93;20.47;;;2.80;84.50;;;;;;5068879;28;20271;-86
2023/03/03 08:07:52;;;;;;;23.50;19.43;;;2.90;83.50;;;;;;5097292;28;20266;-85
2023/03/03 08:10:35;;;;;;;22.83;19.63;;;3.00;82.20;;;;;;5085241;28;20245;-84
2023/03/03 08:13:08;;;;;;;24.00;19.37;;;3.00;82.30;;;;;;5084703;28;20199;-83
2023/03/03 08:15:36;;;;;;;23.63;19.07;;;3.00;81.40;;;;;;5069287;28;20191;-84
2023/03/03 08:18:18;;;;;;;26.13;20.20;;;3.00;81.90;;;;;;5085107;28;20183;-85
2023/03/03 08:20:49;;;;;;;24.23;19.33;;;2.90;82.30;;;;;;5084537;28;20290;-85
2023/03/03 08:23:17;;;;;;;21.57;18.47;;;3.00;81.30;;;;;;5084367;28;20211;-85
2023/03/03 08:25:43;;;;;;;22.20;18.60;;;3.20;80.80;;;;;;5083159;28;20176;-87
2023/03/03 08:28:09;;;;;;;25.07;19.37;;;3.10;80.40;;;;;;5082413;28;20203;-86
2023/03/03 08:30:35;;;;;;;24.80;20.30;;;3.20;80.70;;;;;;5082863;28;20190;-84
2023/03/03 08:33:01;;;;;;;24.37;19.77;;;3.30;79.20;;;;;;5064506;28;20211;-85
2023/03/03 08:35:27;;;;;;;23.37;18.93;;;3.20;79.00;;;;;;5063037;28;20183;-86
2023/03/03 08:37:53;;;;;;;23.90;20.37;;;3.20;78.70;;;;;;5081178;28;20234;-84
2023/03/03 08:40:18;;;;;;;23.30;19.83;;;3.20;78.20;;;;;;5081311;28;20203;-85
2023/03/03 08:42:44;;;;;;;25.13;20.17;;;3.20;78.50;;;;;;5082467;28;20214;-84
2023/03/03 08:45:10;;;;;;;24.47;20.43;;;3.30;77.10;;;;;;5079263;28;20192;-87
2023/03/03 08:47:35;;;;;;;26.30;21.27;;;3.20;77.80;;;;;;5083775;28;20187;-85
2023/03/03 08:50:01;;;;;;;27.60;22.00;;;3.30;78.20;;;;;;5084235;28;20213;-84
2023/03/03 08:52:26;;;;;;;27.60;22.97;;;3.20;78.00;;;;;;5081781;28;20290;-85
2023/03/03 08:54:53;;;;;;;23.57;21.07;;;3.30;77.80;;;;;;5087185;28;20187;-84
2023/03/03 08:57:18;;;;;;;26.43;22.43;;;3.30;78.20;;;;;;5101170;28;20201;-85
2023/03/03 08:59:46;;;;;;;25.93;21.30;;;3.40;78.00;;;;;;5082418;28;20186;-86
2023/03/03 09:02:12;;;;;;;27.93;22.63;;;3.50;77.30;;;;;;5083834;28;20204;-84
2023/03/03 09:04:38;;;;;;;27.87;22.27;;;3.50;77.40;;;;;;5097726;28;20218;-82
2023/03/03 09:07:04;;;;;;;29.80;22.60;;;3.60;77.20;;;;;;5103883;28;20186;-84
2023/03/03 09:09:30;;;;;;;26.87;21.47;;;3.50;78.50;;;;;;5086522;28;20211;-86
2023/03/03 09:12:12;;;;;;;28.97;23.17;;;3.50;78.80;;;;;;5078072;28;20220;-86
2023/03/03 09:14:37;;;;;;;33.33;23.80;;;3.50;79.60;;;;;;5099409;28;20172;-85
2023/03/03 09:17:37;;;;;;;29.03;24.97;;;3.60;78.50;;;;;;5085415;28;20211;-86
2023/03/03 09:20:21;;;;;;;34.13;24.67;;;3.70;78.00;;;;;;5082142;28;20183;-84
2023/03/03 09:22:48;;;;;;;30.07;25.00;;;3.90;77.00;;;;;;5079018;28;20234;-82
2023/03/03 09:25:20;;;;;;;31.37;25.23;;;3.90;76.60;;;;;;5076786;28;20224;-84
2023/03/03 09:27:46;;;;;;;31.80;24.73;;;4.00;75.90;;;;;;5077322;28;20750;-85
2023/03/03 09:30:29;;;;;;;34.13;24.13;;;4.10;75.60;;;;;;5078352;28;20236;-84
2023/03/03 09:32:56;;;;;;;30.07;23.53;;;4.30;74.80;;;;;;5083639;28;20231;-87
2023/03/03 09:35:35;;;;;;;29.33;24.07;;;4.40;73.50;;;;;;5079124;28;20172;-85
2023/03/03 09:38:05;;;;;;;31.90;25.40;;;4.60;73.30;;;;;;5079083;28;20172;-84
2023/03/03 09:40:46;;;;;;;33.27;25.07;;;4.70;72.40;;;;;;5078935;28;20210;-84
2023/03/03 09:43:23;;;;;;;33.77;24.97;;;5.00;72.00;;;;;;5079398;28;20204;-83
2023/03/03 09:45:59;;;;;;;35.77;25.10;;;5.10;70.30;;;;;;5077741;28;20205;-85
2023/03/03 09:48:27;;;;;;;29.63;24.63;;;5.30;70.10;;;;;;5080288;28;20206;-86
2023/03/03 09:50:56;;;;;;;28.67;23.40;;;5.50;68.50;;;;;;5077420;28;20191;-85
2023/03/03 09:53:43;;;;;;;29.33;23.70;;;5.60;66.80;;;;;;5080786;28;20199;-85
2023/03/03 09:56:41;;;;;;;30.27;22.63;;;5.50;67.00;;;;;;5079712;28;20168;-85
2023/03/03 09:59:25;;;;;;;32.47;24.27;;;5.80;65.00;;;;;;5079861;28;20218;-84
2023/03/03 10:02:00;;;;;;;27.27;22.70;;;5.80;64.80;;;;;;5078990;28;20241;-85
2023/03/03 10:05:08;;;;;;;28.30;23.50;;;6.00;64.40;;;;;;5079018;28;20202;-85
2023/03/03 10:07:42;;;;;;;27.83;22.43;;;6.10;64.70;;;;;;5079058;28;20164;-84
2023/03/03 10:10:25;;;;;;;25.63;22.40;;;6.30;62.50;;;;;;5078690;28;20179;-86
2023/03/03 10:13:16;;;;;;;27.47;23.53;;;6.50;61.70;;;;;;5076981;28;20209;-84
2023/03/03 10:16:06;;;;;;;26.87;22.90;;;6.80;61.90;;;;;;5077238;28;20168;-85
2023/03/03 10:18:49;;;;;;;28.40;24.63;;;6.90;60.70;;;;;;5078281;28;20184;-86
2023/03/03 10:21:37;;;;;;;27.37;22.57;;;7.10;59.70;;;;;;5069244;28;20184;-85
2023/03/03 10:24:18;;;;;;;27.67;23.97;;;7.10;59.40;;;;;;5057351;28;20211;-85
2023/03/03 10:27:05;;;;;;;27.63;22.47;;;7.20;59.00;;;;;;5056889;28;20176;-85
2023/03/03 10:30:02;;;;;;;26.03;23.23;;;7.40;57.90;;;;;;5038984;28;20235;-86
2023/03/03 10:32:38;;;;;;;27.60;23.73;;;7.60;57.00;;;;;;5060583;28;20212;-85
2023/03/03 10:35:29;;;;;;;30.67;24.43;;;7.80;57.00;;;;;;5074149;28;20262;-83
2023/03/03 10:38:09;;;;;;;30.47;24.23;;;7.80;56.60;;;;;;5065993;28;20191;-83
2023/03/03 10:40:44;;;;;;;29.23;24.30;;;7.90;56.60;;;;;;5080986;28;20209;-86
2023/03/03 10:43:16;;;;;;;30.40;23.30;;;8.10;56.00;;;;;;5081776;28;20231;-85
2023/03/03 10:45:44;;;;;;;27.73;24.73;;;8.30;56.50;;;;;;5081229;28;20195;-86
2023/03/03 10:48:28;;;;;;;29.20;24.73;;;8.40;54.90;;;;;;5081609;28;20203;-84
2023/03/03 10:50:59;;;;;;;30.00;23.97;;;8.60;54.30;;;;;;5081174;28;20710;-86
2023/03/03 10:53:48;;;;;;;27.70;24.73;;;8.70;54.60;;;;;;5088185;28;20205;-86
2023/03/03 10:56:45;;;;;;;28.67;24.77;;;8.80;53.50;;;;;;5079990;28;20194;-85
2023/03/03 10:59:22;;;;;;;30.87;25.33;;;8.80;54.70;;;;;;5079882;28;20183;-85
2023/03/03 11:01:57;;;;;;;28.40;24.97;;;8.90;52.90;;;;;;5091363;28;20209;-86
2023/03/03 11:04:41;;;;;;;29.10;24.10;;;9.00;52.80;;;;;;5079788;28;20166;-86
2023/03/03 11:07:18;;;;;;;26.73;24.00;;;9.10;51.60;;;;;;5079358;28;20250;-86
2023/03/03 11:10:21;;;;;;;29.40;24.33;;;9.50;51.00;;;;;;5078881;28;20230;-85
2023/03/03 11:13:17;;;;;;;26.80;23.77;;;9.80;50.20;;;;;;5078993;28;20187;-84
2023/03/03 11:15:43;;;;;;;27.47;24.40;;;9.80;48.30;;;;;;5078461;28;20196;-84
2023/03/03 11:18:14;;;;;;;28.00;24.10;;;9.80;48.00;;;;;;5079249;28;20175;-86
2023/03/03 11:20:44;;;;;;;25.90;23.27;;;9.70;48.60;;;;;;5075387;28;20281;-84
2023/03/03 11:23:28;;;;;;;32.37;24.30;;;9.80;48.30;;;;;;5058400;28;20202;-84
2023/03/03 11:26:16;;;;;;;25.00;21.00;;;9.90;48.10;;;;;;5058304;28;20165;-87
2023/03/03 11:28:51;;;;;;;25.10;22.13;;;9.60;47.30;;;;;;5014894;28;20218;-84
2023/03/03 11:31:31;;;;;;;26.23;22.37;;;9.70;47.90;;;;;;5099250;28;20170;-85
2023/03/03 11:34:24;;;;;;;23.43;20.77;;;9.80;47.70;;;;;;5096698;28;20199;-86
2023/03/03 11:37:01;;;;;;;28.07;23.37;;;9.70;46.90;;;;;;5074731;28;20195;-85
2023/03/03 11:39:26;;;;;;;25.63;22.30;;;9.80;47.70;;;;;;5064029;28;20168;-85
2023/03/03 11:42:16;;;;;;;25.43;22.53;;;9.90;47.60;;;;;;5067291;28;20210;-85
2023/03/03 11:44:50;;;;;;;25.83;22.83;;;10.10;47.40;;;;;;5083458;28;20183;-86
2023/03/03 11:47:52;;;;;;;26.07;22.43;;;10.30;47.40;;;;;;5084067;28;20166;-85
2023/03/03 11:50:27;;;;;;;28.10;24.23;;;10.60;45.50;;;;;;5070049;28;20190;-85
2023/03/03 11:53:11;;;;;;;26.93;24.03;;;10.60;45.30;;;;;;5082769;28;20214;-86
2023/03/03 11:55:40;;;;;;;25.90;23.10;;;10.70;44.90;;;;;;5082636;28;20241;-85
2023/03/03 11:58:24;;;;;;;25.80;23.23;;;10.90;44.10;;;;;;5083323;28;20181;-84
2023/03/03 12:01:08;;;;;;;27.27;24.43;;;11.30;44.30;;;;;;5101747;28;20187;-85
2023/03/03 12:03:56;;;;;;;27.33;24.47;;;11.40;42.40;;;;;;5082615;28;20219;-86
2023/03/03 12:06:31;;;;;;;26.13;23.20;;;11.10;43.30;;;;;;5064876;28;20175;-85
2023/03/03 12:09:38;;;;;;;29.17;24.13;;;11.00;43.80;;;;;;5063590;28;20274;-85
2023/03/03 12:12:13;;;;;;;26.37;23.67;;;11.20;43.20;;;;;;5019834;28;20215;-85
2023/03/03 12:15:03;;;;;;;27.00;23.87;;;11.40;42.20;;;;;;5077314;28;20185;-84
2023/03/03 12:17:53;;;;;;;29.23;24.97;;;11.30;43.30;;;;;;5080442;28;20642;-86
2023/03/03 12:20:41;;;;;;;27.30;24.27;;;11.40;43.00;;;;;;5078724;28;20152;-85
2023/03/03 12:23:37;;;;;;;28.47;24.03;;;11.40;42.60;;;;;;5060236;28;20204;-86
2023/03/03 12:26:26;;;;;;;27.77;24.20;;;11.70;41.80;;;;;;5059737;28;20173;-85
2023/03/03 12:29:05;;;;;;;26.80;23.93;;;11.70;42.40;;;;;;5072701;28;20696;-85
2023/03/03 12:31:49;;;;;;;28.87;25.77;;;12.00;41.90;;;;;;5081149;28;20192;-85
2023/03/03 12:34:34;;;;;;;30.67;25.63;;;12.30;40.50;;;;;;5064095;28;20199;-86
2023/03/03 12:37:31;;;;;;;29.57;24.50;;;12.50;39.70;;;;;;5059832;28;20628;-85
2023/03/03 12:40:39;;;;;;;27.47;24.53;;;12.00;40.80;;;;;;5058237;28;20668;-85
2023/03/03 12:43:20;;;;;;;27.73;25.07;;;12.00;41.30;;;;;;5020403;28;20205;-86
2023/03/03 12:46:15;;;;;;;26.57;23.83;;;12.30;41.10;;;;;;5062456;28;20876;-83
2023/03/03 12:48:45;;;;;;;28.33;25.47;;;12.20;41.00;;;;;;5098920;28;20419;-87
2023/03/03 12:51:26;;;;;;;28.10;25.07;;;12.30;40.50;;;;;;5101301;28;20268;-86
2023/03/03 12:54:16;;;;;;;28.63;25.63;;;12.60;40.00;;;;;;5083382;28;20186;-86
2023/03/03 12:57:00;;;;;;;28.93;25.73;;;12.80;39.60;;;;;;5087783;28;20212;-85
2023/03/03 12:59:44;;;;;;;31.33;25.57;;;13.10;39.00;;;;;;5102254;28;20159;-85
2023/03/03 13:02:55;;;;;;;29.50;26.30;;;13.20;39.20;;;;;;5100282;28;20903;-85